サンホセ/フアン・サンタ・マリア の空港の天気 - METARとTAF

フアン・サンタ・マリア国際空港 ( MROC / SJO ) - コスタリカ サンホセ
飛行場実況気象(Metar)
観測時間11/30 10:00 CST (11/30 16:00 UTC)
風向・風速北 3m/s
視程10km以上
天気現象
全天の4割程度の雲 雲底高度 1220m
気温26℃
湿度61%
気圧1016hPa
METARMROC 301600Z VRB05KT 9999 SCT040 26/18 A3000 NOSIG
過去の天気等 Google飛行場航空写真 Wunderground天気予報

過去48時間のMETAR

飛行場予報(TAF)
発表時間: 11/30 05:16 CST (11/30 11:16 UTC)
予報対象時間: 30日6時 CST ~ 1日6時 CST
風向・風速東南東 5m/s
視程10km以上
全天の4割程度の雲 雲底高度 1220m
30日15時 CST ~ 30日18時 CST に一時的に
風向・風速西南西 2m/s
全天の8割程度の雲 雲底高度 610m
MROC 301116Z 3012/0112 11010KT 9999 SCT040 TX28/3018Z TN18/0111Z
TEMPO 3021/3024 24004KT BKN020